Aviation Digital Data Service (ADDS)

Output produced by METARs form (0746 UTC 18 February 2019)
found at http://www.aviationweather.gov/metar/data/
 
METAR text: SPQU 180700Z 00000KT 9999 FEW060 SCT080 14/11 Q1026 RMK PP000
Conditions at: SPQU (AREQUIPA/RODRIGU, PE) observed 0700 UTC 18 February 2019
Temperature: 14.0°C (57°F)
Dewpoint: 11.0°C (52°F) [RH = 82%]
Pressure (altimeter): 30.30 inches Hg (1026.0 mb)
Winds: calm
Visibility: 6 or more miles (10+ km)
Ceiling: at least 12,000 feet AGL
Clouds: few clouds at 6000 feet AGL
scattered clouds at 8000 feet AGL
Weather: no significant weather observed at this time

METAR text: SPQU 180600Z 27004KT 9999 SCT060 SCT080 14/11 Q1027 RMK PP000
Conditions at: SPQU (AREQUIPA/RODRIGU, PE) observed 0600 UTC 18 February 2019
Temperature: 14.0°C (57°F)
Dewpoint: 11.0°C (52°F) [RH = 82%]
Pressure (altimeter): 30.32 inches Hg (1027.0 mb)
Winds: from the W (270 degrees) at 5 MPH (4 knots; 2.1 m/s)
Visibility: 6 or more miles (10+ km)
Ceiling: at least 12,000 feet AGL
Clouds: scattered clouds at 6000 feet AGL
scattered clouds at 8000 feet AGL
Weather: no significant weather observed at this time

METAR text: SPQU 180500Z 27004KT 9999 FEW020 SCT060 BKN080 14/12 Q1027 RMK PP000
Conditions at: SPQU (AREQUIPA/RODRIGU, PE) observed 0500 UTC 18 February 2019
Temperature: 14.0°C (57°F)
Dewpoint: 12.0°C (54°F) [RH = 88%]
Pressure (altimeter): 30.32 inches Hg (1027.0 mb)
Winds: from the W (270 degrees) at 5 MPH (4 knots; 2.1 m/s)
Visibility: 6 or more miles (10+ km)
Ceiling: 8000 feet AGL
Clouds: few clouds at 2000 feet AGL
scattered clouds at 6000 feet AGL
broken clouds at 8000 feet AGL
Weather: no significant weather observed at this time

METAR text: SPQU 180400Z 29003KT 9999 SCT060 BKN080 15/11 Q1028 RMK PP000
Conditions at: SPQU (AREQUIPA/RODRIGU, PE) observed 0400 UTC 18 February 2019
Temperature: 15.0°C (59°F)
Dewpoint: 11.0°C (52°F) [RH = 77%]
Pressure (altimeter): 30.35 inches Hg (1028.0 mb)
Winds: from the WNW (290 degrees) at 3 MPH (3 knots; 1.5 m/s)
Visibility: 6 or more miles (10+ km)
Ceiling: 8000 feet AGL
Clouds: scattered clouds at 6000 feet AGL
broken clouds at 8000 feet AGL
Weather: no significant weather observed at this time

METAR text: SPQU 180300Z VRB03KT 9999 SCT060 BKN080 15/12 Q1028 RMK PP000
Conditions at: SPQU (AREQUIPA/RODRIGU, PE) observed 0300 UTC 18 February 2019
Temperature: 15.0°C (59°F)
Dewpoint: 12.0°C (54°F) [RH = 82%]
Pressure (altimeter): 30.35 inches Hg (1028.0 mb)
Winds: variable direction winds at 3 MPH (3 knots; 1.5 m/s)
Visibility: 6 or more miles (10+ km)
Ceiling: 8000 feet AGL
Clouds: scattered clouds at 6000 feet AGL
broken clouds at 8000 feet AGL
Weather: no significant weather observed at this time

METAR text: SPQU 180200Z 16005KT 9999 FEW025 SCT060 15/12 Q1027 RMK PP000
Conditions at: SPQU (AREQUIPA/RODRIGU, PE) observed 0200 UTC 18 February 2019
Temperature: 15.0°C (59°F)
Dewpoint: 12.0°C (54°F) [RH = 82%]
Pressure (altimeter): 30.32 inches Hg (1027.0 mb)
Winds: from the SSE (160 degrees) at 6 MPH (5 knots; 2.6 m/s)
Visibility: 6 or more miles (10+ km)
Ceiling: at least 12,000 feet AGL
Clouds: few clouds at 2500 feet AGL
scattered clouds at 6000 feet AGL
Weather: no significant weather observed at this time

METAR text: SPQU 180100Z VRB02KT 9999 FEW015 SCT025 BKN080 15/12 Q1027 RMK PP000
Conditions at: SPQU (AREQUIPA/RODRIGU, PE) observed 0100 UTC 18 February 2019
Temperature: 15.0°C (59°F)
Dewpoint: 12.0°C (54°F) [RH = 82%]
Pressure (altimeter): 30.32 inches Hg (1027.0 mb)
Winds: variable direction winds at 2 MPH (2 knots; 1.0 m/s)
Visibility: 6 or more miles (10+ km)
Ceiling: 8000 feet AGL
Clouds: few clouds at 1500 feet AGL
scattered clouds at 2500 feet AGL
broken clouds at 8000 feet AGL
Weather: no significant weather observed at this time

METAR text: SPQU 180000Z 27007KT 9999 SCT020 SCT060 BKN080 15/12 Q1026 RMK PP000
Conditions at: SPQU (AREQUIPA/RODRIGU, PE) observed 0000 UTC 18 February 2019
Temperature: 15.0°C (59°F)
Dewpoint: 12.0°C (54°F) [RH = 82%]
Pressure (altimeter): 30.30 inches Hg (1026.0 mb)
Winds: from the W (270 degrees) at 8 MPH (7 knots; 3.6 m/s)
Visibility: 6 or more miles (10+ km)
Ceiling: 8000 feet AGL
Clouds: scattered clouds at 2000 feet AGL
scattered clouds at 6000 feet AGL
broken clouds at 8000 feet AGL
Weather: no significant weather observed at this time

METAR text: SPQU 172300Z 27007KT 9999 SCT020 BKN030 16/11 Q1025 NOSIG RMK PP000
Conditions at: SPQU (AREQUIPA/RODRIGU, PE) observed 2300 UTC 17 February 2019
Temperature: 16.0°C (61°F)
Dewpoint: 11.0°C (52°F) [RH = 72%]
Pressure (altimeter): 30.27 inches Hg (1025.0 mb)
Winds: from the W (270 degrees) at 8 MPH (7 knots; 3.6 m/s)
Visibility: 6 or more miles (10+ km)
Ceiling: 3000 feet AGL
Clouds: scattered clouds at 2000 feet AGL
broken clouds at 3000 feet AGL
Weather: no significant weather observed at this time

METAR text: SPQU 172200Z 27010KT 9999 SCT020 BKN030 17/10 Q1025 NOSIG RMK TX21.4 PP000
Conditions at: SPQU (AREQUIPA/RODRIGU, PE) observed 2200 UTC 17 February 2019
Temperature: 17.0°C (63°F)
Dewpoint: 10.0°C (50°F) [RH = 63%]
Pressure (altimeter): 30.27 inches Hg (1025.0 mb)
Winds: from the W (270 degrees) at 12 MPH (10 knots; 5.1 m/s)
Visibility: 6 or more miles (10+ km)
Ceiling: 3000 feet AGL
Clouds: scattered clouds at 2000 feet AGL
broken clouds at 3000 feet AGL
Weather: no significant weather observed at this time

METAR text: SPQU 172100Z 24010KT 200V290 9999 SCT020 BKN040 19/10 Q1024 NOSIG RMK PP000
Conditions at: SPQU (AREQUIPA/RODRIGU, PE) observed 2100 UTC 17 February 2019
Temperature: 19.0°C (66°F)
Dewpoint: 10.0°C (50°F) [RH = 56%]
Pressure (altimeter): 30.24 inches Hg (1024.0 mb)
Winds: from the WSW (240 degrees) at 12 MPH (10 knots; 5.1 m/s)
Visibility: 6 or more miles (10+ km)
Ceiling: 4000 feet AGL
Clouds: scattered clouds at 2000 feet AGL
broken clouds at 4000 feet AGL
Weather: no significant weather observed at this time

METAR text: SPQU 172000Z 26012KT 210V280 9999 FEW020 SCT040 20/11 Q1024 NOSIG RMK PP000
Conditions at: SPQU (AREQUIPA/RODRIGU, PE) observed 2000 UTC 17 February 2019
Temperature: 20.0°C (68°F)
Dewpoint: 11.0°C (52°F) [RH = 56%]
Pressure (altimeter): 30.24 inches Hg (1024.0 mb)
Winds: from the W (260 degrees) at 14 MPH (12 knots; 6.2 m/s)
Visibility: 6 or more miles (10+ km)
Ceiling: at least 12,000 feet AGL
Clouds: few clouds at 2000 feet AGL
scattered clouds at 4000 feet AGL
Weather: no significant weather observed at this time

METAR text: SPQU 171900Z 26011KT 9999 SCT030 21/10 Q1025 RMK PP000
Conditions at: SPQU (AREQUIPA/RODRIGU, PE) observed 1900 UTC 17 February 2019
Temperature: 21.0°C (70°F)
Dewpoint: 10.0°C (50°F) [RH = 49%]
Pressure (altimeter): 30.27 inches Hg (1025.0 mb)
Winds: from the W (260 degrees) at 13 MPH (11 knots; 5.7 m/s)
Visibility: 6 or more miles (10+ km)
Ceiling: at least 12,000 feet AGL
Clouds: scattered clouds at 3000 feet AGL
Weather: no significant weather observed at this time

METAR text: SPQU 171800Z 25009KT 210V290 9999 SCT030 20/09 Q1025 RMK PP000
Conditions at: SPQU (AREQUIPA/RODRIGU, PE) observed 1800 UTC 17 February 2019
Temperature: 20.0°C (68°F)
Dewpoint: 9.0°C (48°F) [RH = 49%]
Pressure (altimeter): 30.27 inches Hg (1025.0 mb)
Winds: from the WSW (250 degrees) at 10 MPH (9 knots; 4.6 m/s)
Visibility: 6 or more miles (10+ km)
Ceiling: at least 12,000 feet AGL
Clouds: scattered clouds at 3000 feet AGL
Weather: no significant weather observed at this time

METAR text: SPQU 171700Z 26006KT 170V320 9999 SCT050 20/11 Q1026 NOSIG RMK PP000
Conditions at: SPQU (AREQUIPA/RODRIGU, PE) observed 1700 UTC 17 February 2019
Temperature: 20.0°C (68°F)
Dewpoint: 11.0°C (52°F) [RH = 56%]
Pressure (altimeter): 30.30 inches Hg (1026.0 mb)
Winds: from the W (260 degrees) at 7 MPH (6 knots; 3.1 m/s)
Visibility: 6 or more miles (10+ km)
Ceiling: at least 12,000 feet AGL
Clouds: scattered clouds at 5000 feet AGL
Weather: no significant weather observed at this time

METAR text: SPQU 171600Z 26006KT 160V330 9999 SCT040 19/10 Q1026 NOSIG RMK PP000
Conditions at: SPQU (AREQUIPA/RODRIGU, PE) observed 1600 UTC 17 February 2019
Temperature: 19.0°C (66°F)
Dewpoint: 10.0°C (50°F) [RH = 56%]
Pressure (altimeter): 30.30 inches Hg (1026.0 mb)
Winds: from the W (260 degrees) at 7 MPH (6 knots; 3.1 m/s)
Visibility: 6 or more miles (10+ km)
Ceiling: at least 12,000 feet AGL
Clouds: scattered clouds at 4000 feet AGL
Weather: no significant weather observed at this time

METAR text: SPQU 171500Z 24004KT 160V330 9999 SCT050 18/11 Q1026 NOSIG RMK PP000
Conditions at: SPQU (AREQUIPA/RODRIGU, PE) observed 1500 UTC 17 February 2019
Temperature: 18.0°C (64°F)
Dewpoint: 11.0°C (52°F) [RH = 64%]
Pressure (altimeter): 30.30 inches Hg (1026.0 mb)
Winds: from the WSW (240 degrees) at 5 MPH (4 knots; 2.1 m/s)
Visibility: 6 or more miles (10+ km)
Ceiling: at least 12,000 feet AGL
Clouds: scattered clouds at 5000 feet AGL
Weather: no significant weather observed at this time

METAR text: SPQU 171400Z 23004KT 180V260 9999 SCT100 17/11 Q1026 NOSIG RMK PP000
Conditions at: SPQU (AREQUIPA/RODRIGU, PE) observed 1400 UTC 17 February 2019
Temperature: 17.0°C (63°F)
Dewpoint: 11.0°C (52°F) [RH = 68%]
Pressure (altimeter): 30.30 inches Hg (1026.0 mb)
Winds: from the SW (230 degrees) at 5 MPH (4 knots; 2.1 m/s)
Visibility: 6 or more miles (10+ km)
Ceiling: at least 12,000 feet AGL
Clouds: scattered clouds at 10000 feet AGL
Weather: no significant weather observed at this time

METAR text: SPQU 171300Z VRB02KT 9999 SCT070 BKN100 16/12 Q1026 NOSIG RMK PP000
Conditions at: SPQU (AREQUIPA/RODRIGU, PE) observed 1300 UTC 17 February 2019
Temperature: 16.0°C (61°F)
Dewpoint: 12.0°C (54°F) [RH = 77%]
Pressure (altimeter): 30.30 inches Hg (1026.0 mb)
Winds: variable direction winds at 2 MPH (2 knots; 1.0 m/s)
Visibility: 6 or more miles (10+ km)
Ceiling: 10000 feet AGL
Clouds: scattered clouds at 7000 feet AGL
broken clouds at 10000 feet AGL
Weather: no significant weather observed at this time

METAR text: SPQU 171200Z 35002KT 9999 SCT070 BKN100 14/11 Q1026 NOSIG RMK TN 12.3 PP000
Conditions at: SPQU (AREQUIPA/RODRIGU, PE) observed 1200 UTC 17 February 2019
Temperature: 14.0°C (57°F)
Dewpoint: 11.0°C (52°F) [RH = 82%]
Pressure (altimeter): 30.30 inches Hg (1026.0 mb)
Winds: from the N (350 degrees) at 2 MPH (2 knots; 1.0 m/s)
Visibility: 6 or more miles (10+ km)
Ceiling: 10000 feet AGL
Clouds: scattered clouds at 7000 feet AGL
broken clouds at 10000 feet AGL
Weather: no significant weather observed at this time

METAR text: SPQU 171100Z 28002KT 9999 BKN100 SCT150 14/11 Q1025 RMK PP000
Conditions at: SPQU (AREQUIPA/RODRIGU, PE) observed 1100 UTC 17 February 2019
Temperature: 14.0°C (57°F)
Dewpoint: 11.0°C (52°F) [RH = 82%]
Pressure (altimeter): 30.27 inches Hg (1025.0 mb)
Winds: from the W (280 degrees) at 2 MPH (2 knots; 1.0 m/s)
Visibility: 6 or more miles (10+ km)
Ceiling: 10000 feet AGL
Clouds: broken clouds at 10000 feet AGL
scattered clouds at 15000 feet AGL
Weather: no significant weather observed at this time

METAR text: SPQU 171000Z 36002KT 9999 BKN100 SCT150 14/12 Q1025 RMK PP000
Conditions at: SPQU (AREQUIPA/RODRIGU, PE) observed 1000 UTC 17 February 2019
Temperature: 14.0°C (57°F)
Dewpoint: 12.0°C (54°F) [RH = 88%]
Pressure (altimeter): 30.27 inches Hg (1025.0 mb)
Winds: from the N (360 degrees) at 2 MPH (2 knots; 1.0 m/s)
Visibility: 6 or more miles (10+ km)
Ceiling: 10000 feet AGL
Clouds: broken clouds at 10000 feet AGL
scattered clouds at 15000 feet AGL
Weather: no significant weather observed at this time

METAR text: SPQU 170900Z 07004KT 8000 BKN100 SCT150 13/12 Q1025 RMK PP000
Conditions at: SPQU (AREQUIPA/RODRIGU, PE) observed 0900 UTC 17 February 2019
Temperature: 13.0°C (55°F)
Dewpoint: 12.0°C (54°F) [RH = 94%]
Pressure (altimeter): 30.27 inches Hg (1025.0 mb)
Winds: from the ENE (70 degrees) at 5 MPH (4 knots; 2.1 m/s)
Visibility: 5 miles ( 8 km)
Ceiling: 10000 feet AGL
Clouds: broken clouds at 10000 feet AGL
scattered clouds at 15000 feet AGL
Weather: no significant weather observed at this time

METAR text: SPQU 170800Z 29003KT 8000 BKN080 SCT150 13/12 Q1025 RMK PP000
Conditions at: SPQU (AREQUIPA/RODRIGU, PE) observed 0800 UTC 17 February 2019
Temperature: 13.0°C (55°F)
Dewpoint: 12.0°C (54°F) [RH = 94%]
Pressure (altimeter): 30.27 inches Hg (1025.0 mb)
Winds: from the WNW (290 degrees) at 3 MPH (3 knots; 1.5 m/s)
Visibility: 5 miles ( 8 km)
Ceiling: 8000 feet AGL
Clouds: broken clouds at 8000 feet AGL
scattered clouds at 15000 feet AGL
Weather: no significant weather observed at this time

METAR text: SPQU 170700Z VRB02KT 8000 SCT100 SCT150 14/12 Q1025 RMK PP000
Conditions at: SPQU (AREQUIPA/RODRIGU, PE) observed 0700 UTC 17 February 2019
Temperature: 14.0°C (57°F)
Dewpoint: 12.0°C (54°F) [RH = 88%]
Pressure (altimeter): 30.27 inches Hg (1025.0 mb)
Winds: variable direction winds at 2 MPH (2 knots; 1.0 m/s)
Visibility: 5 miles ( 8 km)
Ceiling: at least 12,000 feet AGL
Clouds: scattered clouds at 10000 feet AGL
scattered clouds at 15000 feet AGL
Weather: no significant weather observed at this time

METAR text: SPQU 170600Z 10004KT 9000 SCT100 SCT150 13/12 Q1026 RMK PP000
Conditions at: SPQU (AREQUIPA/RODRIGU, PE) observed 0600 UTC 17 February 2019
Temperature: 13.0°C (55°F)
Dewpoint: 12.0°C (54°F) [RH = 94%]
Pressure (altimeter): 30.30 inches Hg (1026.0 mb)
Winds: from the E (100 degrees) at 5 MPH (4 knots; 2.1 m/s)
Visibility: 6 miles ( 9 km)
Ceiling: at least 12,000 feet AGL
Clouds: scattered clouds at 10000 feet AGL
scattered clouds at 15000 feet AGL
Weather: no significant weather observed at this time

METAR text: SPQU 170500Z 00000KT 9999 SCT100 SCT150 14/12 Q1027 RMK PP000
Conditions at: SPQU (AREQUIPA/RODRIGU, PE) observed 0500 UTC 17 February 2019
Temperature: 14.0°C (57°F)
Dewpoint: 12.0°C (54°F) [RH = 88%]
Pressure (altimeter): 30.32 inches Hg (1027.0 mb)
Winds: calm
Visibility: 6 or more miles (10+ km)
Ceiling: at least 12,000 feet AGL
Clouds: scattered clouds at 10000 feet AGL
scattered clouds at 15000 feet AGL
Weather: no significant weather observed at this time

METAR text: SPQU 170400Z 28002KT 9999 SCT080 SCT150 13/12 Q1027 RMK PP000
Conditions at: SPQU (AREQUIPA/RODRIGU, PE) observed 0400 UTC 17 February 2019
Temperature: 13.0°C (55°F)
Dewpoint: 12.0°C (54°F) [RH = 94%]
Pressure (altimeter): 30.32 inches Hg (1027.0 mb)
Winds: from the W (280 degrees) at 2 MPH (2 knots; 1.0 m/s)
Visibility: 6 or more miles (10+ km)
Ceiling: at least 12,000 feet AGL
Clouds: scattered clouds at 8000 feet AGL
scattered clouds at 15000 feet AGL
Weather: no significant weather observed at this time

METAR text: SPQU 170300Z VRB03KT 9999 FEW060 BKN150 14/12 Q1027 RMK PP000
Conditions at: SPQU (AREQUIPA/RODRIGU, PE) observed 0300 UTC 17 February 2019
Temperature: 14.0°C (57°F)
Dewpoint: 12.0°C (54°F) [RH = 88%]
Pressure (altimeter): 30.32 inches Hg (1027.0 mb)
Winds: variable direction winds at 3 MPH (3 knots; 1.5 m/s)
Visibility: 6 or more miles (10+ km)
Ceiling: 15000 feet AGL
Clouds: few clouds at 6000 feet AGL
broken clouds at 15000 feet AGL
Weather: no significant weather observed at this time

METAR text: SPQU 170200Z 00000KT 9999 FEW005 SCT015 BKN060 14/12 Q1028 RMK PP000
Conditions at: SPQU (AREQUIPA/RODRIGU, PE) observed 0200 UTC 17 February 2019
Temperature: 14.0°C (57°F)
Dewpoint: 12.0°C (54°F) [RH = 88%]
Pressure (altimeter): 30.35 inches Hg (1028.0 mb)
Winds: calm
Visibility: 6 or more miles (10+ km)
Ceiling: 6000 feet AGL
Clouds: few clouds at 500 feet AGL
scattered clouds at 1500 feet AGL
broken clouds at 6000 feet AGL
Weather: no significant weather observed at this time

METAR text: SPQU 170100Z 27003KT 9999 FEW004 SCT010 13/12 Q1027 RMK PP000
Conditions at: SPQU (AREQUIPA/RODRIGU, PE) observed 0100 UTC 17 February 2019
Temperature: 13.0°C (55°F)
Dewpoint: 12.0°C (54°F) [RH = 94%]
Pressure (altimeter): 30.32 inches Hg (1027.0 mb)
Winds: from the W (270 degrees) at 3 MPH (3 knots; 1.5 m/s)
Visibility: 6 or more miles (10+ km)
Ceiling: at least 12,000 feet AGL
Clouds: few clouds at 400 feet AGL
scattered clouds at 1000 feet AGL
Weather: no significant weather observed at this time

METAR text: SPQU 170000Z 25005KT 9999 SCT006 SCT012 14/12 Q1027 RMK PP000
Conditions at: SPQU (AREQUIPA/RODRIGU, PE) observed 0000 UTC 17 February 2019
Temperature: 14.0°C (57°F)
Dewpoint: 12.0°C (54°F) [RH = 88%]
Pressure (altimeter): 30.32 inches Hg (1027.0 mb)
Winds: from the WSW (250 degrees) at 6 MPH (5 knots; 2.6 m/s)
Visibility: 6 or more miles (10+ km)
Ceiling: at least 12,000 feet AGL
Clouds: scattered clouds at 600 feet AGL
scattered clouds at 1200 feet AGL
Weather: no significant weather observed at this time

METAR text: SPQU 162300Z 26008KT 9999 BKN010 SCT015 14/12 Q1026 NOSIG RMK PP000
Conditions at: SPQU (AREQUIPA/RODRIGU, PE) observed 2300 UTC 16 February 2019
Temperature: 14.0°C (57°F)
Dewpoint: 12.0°C (54°F) [RH = 88%]
Pressure (altimeter): 30.30 inches Hg (1026.0 mb)
Winds: from the W (260 degrees) at 9 MPH (8 knots; 4.1 m/s)
Visibility: 6 or more miles (10+ km)
Ceiling: 1000 feet AGL
Clouds: broken clouds at 1000 feet AGL
scattered clouds at 1500 feet AGL
Weather: no significant weather observed at this time

METAR text: SPQU 162200Z 27009KT 9999 BKN020 SCT030 15/12 Q1026 NOSIG RMK TX19.2 PP000
Conditions at: SPQU (AREQUIPA/RODRIGU, PE) observed 2200 UTC 16 February 2019
Temperature: 15.0°C (59°F)
Dewpoint: 12.0°C (54°F) [RH = 82%]
Pressure (altimeter): 30.30 inches Hg (1026.0 mb)
Winds: from the W (270 degrees) at 10 MPH (9 knots; 4.6 m/s)
Visibility: 6 or more miles (10+ km)
Ceiling: 2000 feet AGL
Clouds: broken clouds at 2000 feet AGL
scattered clouds at 3000 feet AGL
Weather: no significant weather observed at this time

METAR text: SPQU 162100Z 27010KT 9999 BKN020 SCT030 16/11 Q1026 NOSIG RMK PP000
Conditions at: SPQU (AREQUIPA/RODRIGU, PE) observed 2100 UTC 16 February 2019
Temperature: 16.0°C (61°F)
Dewpoint: 11.0°C (52°F) [RH = 72%]
Pressure (altimeter): 30.30 inches Hg (1026.0 mb)
Winds: from the W (270 degrees) at 12 MPH (10 knots; 5.1 m/s)
Visibility: 6 or more miles (10+ km)
Ceiling: 2000 feet AGL
Clouds: broken clouds at 2000 feet AGL
scattered clouds at 3000 feet AGL
Weather: no significant weather observed at this time

METAR text: SPQU 162000Z 26012KT 9999 BKN020 SCT040 17/11 Q1026 NOSIG RMK PP000
Conditions at: SPQU (AREQUIPA/RODRIGU, PE) observed 2000 UTC 16 February 2019
Temperature: 17.0°C (63°F)
Dewpoint: 11.0°C (52°F) [RH = 68%]
Pressure (altimeter): 30.30 inches Hg (1026.0 mb)
Winds: from the W (260 degrees) at 14 MPH (12 knots; 6.2 m/s)
Visibility: 6 or more miles (10+ km)
Ceiling: 2000 feet AGL
Clouds: broken clouds at 2000 feet AGL
scattered clouds at 4000 feet AGL
Weather: no significant weather observed at this time

Forecast for: SPQU (AREQUIPA/RODRIGU, PE)
Text: SPQU 180500Z 1806/1906 03005KT 9999 FEW020 SCT060 SCT080 TX19/1818Z TN12/1810Z
Forecast period: 0600 to 1500 UTC 18 February 2019
Forecast type: FROM: standard forecast or significant change
Winds: from the NNE (30 degrees) at 6 MPH (5 knots; 2.6 m/s)
Visibility: 6 or more miles 10+ km)
Ceiling: at least 12,000 feet AGL
Clouds: few clouds at 2000 feet AGL
scattered clouds at 6000 feet AGL
scattered clouds at 8000 feet AGL
Weather: no significant weather forecast for this period
Text: FM181500 25010KT CAVOK
Forecast period: 1500 UTC 18 February 2019 to 0000 UTC 19 February 2019
Forecast type: FROM: standard forecast or significant change
Winds: from the WSW (250 degrees) at 12 MPH (10 knots; 5.1 m/s)
Visibility: 6 or more miles 10+ km)
Ceiling: unknown
Clouds: missing
Weather: NSW  (no significant weather)
Text: BECMG 1900/1902 VRB02KT
Forecast period: 0000 to 0600 UTC 19 February 2019
Forecast type: BECOMING: Conditions expected to become as follows by 0200 UTC 19 February 2019
Winds: variable direction winds at 2 MPH (2 knots; 1.0 m/s)
Visibility: 6 or more miles 10+ km)
Ceiling: unknown
Clouds: missing
Weather: NSW  (no significant weather)